sensor_id;sensor_type;location;lat;lon;timestamp;P1;durP1;ratioP1;P2;durP2;ratioP2
8232;SDS011;4157;48.074;9.952;2023-07-13T00:02:08;5.90;;;4.15;;
8232;SDS011;4157;48.074;9.952;2023-07-13T00:04:37;6.38;;;4.28;;
8232;SDS011;4157;48.074;9.952;2023-07-13T00:07:04;8.38;;;3.97;;
8232;SDS011;4157;48.074;9.952;2023-07-13T00:09:32;7.55;;;4.18;;
8232;SDS011;4157;48.074;9.952;2023-07-13T00:12:00;7.30;;;3.95;;
8232;SDS011;4157;48.074;9.952;2023-07-13T00:14:28;7.35;;;3.90;;
8232;SDS011;4157;48.074;9.952;2023-07-13T00:16:56;6.85;;;3.83;;
8232;SDS011;4157;48.074;9.952;2023-07-13T00:19:27;8.52;;;4.35;;
8232;SDS011;4157;48.074;9.952;2023-07-13T00:21:55;6.43;;;3.65;;
8232;SDS011;4157;48.074;9.952;2023-07-13T00:24:22;9.05;;;4.57;;
8232;SDS011;4157;48.074;9.952;2023-07-13T00:26:50;8.30;;;4.85;;
8232;SDS011;4157;48.074;9.952;2023-07-13T00:29:18;7.43;;;4.47;;
8232;SDS011;4157;48.074;9.952;2023-07-13T00:31:46;6.50;;;4.35;;
8232;SDS011;4157;48.074;9.952;2023-07-13T00:34:14;6.93;;;4.43;;
8232;SDS011;4157;48.074;9.952;2023-07-13T00:36:44;6.80;;;4.82;;
8232;SDS011;4157;48.074;9.952;2023-07-13T00:39:12;8.80;;;4.53;;
8232;SDS011;4157;48.074;9.952;2023-07-13T00:41:40;7.45;;;3.95;;
8232;SDS011;4157;48.074;9.952;2023-07-13T00:44:09;6.70;;;4.40;;
8232;SDS011;4157;48.074;9.952;2023-07-13T00:46:38;8.90;;;4.57;;
8232;SDS011;4157;48.074;9.952;2023-07-13T00:49:06;9.82;;;5.00;;
8232;SDS011;4157;48.074;9.952;2023-07-13T00:51:36;8.15;;;4.43;;
8232;SDS011;4157;48.074;9.952;2023-07-13T00:54:09;8.50;;;4.38;;
8232;SDS011;4157;48.074;9.952;2023-07-13T00:56:38;9.00;;;3.95;;
8232;SDS011;4157;48.074;9.952;2023-07-13T00:59:06;7.30;;;4.45;;
8232;SDS011;4157;48.074;9.952;2023-07-13T01:01:35;7.35;;;4.55;;
8232;SDS011;4157;48.074;9.952;2023-07-13T01:04:02;6.55;;;4.60;;
8232;SDS011;4157;48.074;9.952;2023-07-13T01:06:33;7.35;;;4.45;;
8232;SDS011;4157;48.074;9.952;2023-07-13T01:09:02;8.60;;;4.57;;
8232;SDS011;4157;48.074;9.952;2023-07-13T01:11:32;8.05;;;4.47;;
8232;SDS011;4157;48.074;9.952;2023-07-13T01:14:00;11.13;;;4.85;;
8232;SDS011;4157;48.074;9.952;2023-07-13T01:16:29;8.45;;;4.50;;
8232;SDS011;4157;48.074;9.952;2023-07-13T01:18:57;9.38;;;4.72;;
8232;SDS011;4157;48.074;9.952;2023-07-13T01:21:28;7.47;;;5.00;;
8232;SDS011;4157;48.074;9.952;2023-07-13T01:23:58;8.73;;;5.38;;
8232;SDS011;4157;48.074;9.952;2023-07-13T01:26:26;9.93;;;5.20;;
8232;SDS011;4157;48.074;9.952;2023-07-13T01:28:53;9.30;;;5.55;;
8232;SDS011;4157;48.074;9.952;2023-07-13T01:31:22;10.85;;;5.57;;
8232;SDS011;4157;48.074;9.952;2023-07-13T01:33:50;10.23;;;5.68;;
8232;SDS011;4157;48.074;9.952;2023-07-13T01:36:20;9.93;;;5.72;;
8232;SDS011;4157;48.074;9.952;2023-07-13T01:38:49;9.32;;;4.35;;
8232;SDS011;4157;48.074;9.952;2023-07-13T01:41:17;7.63;;;4.45;;
8232;SDS011;4157;48.074;9.952;2023-07-13T01:43:45;6.65;;;4.22;;
8232;SDS011;4157;48.074;9.952;2023-07-13T01:46:13;7.43;;;5.00;;
8232;SDS011;4157;48.074;9.952;2023-07-13T01:48:40;10.88;;;4.32;;
8232;SDS011;4157;48.074;9.952;2023-07-13T01:51:08;6.43;;;4.20;;
8232;SDS011;4157;48.074;9.952;2023-07-13T01:53:36;7.70;;;4.60;;
8232;SDS011;4157;48.074;9.952;2023-07-13T01:56:05;7.13;;;4.18;;
8232;SDS011;4157;48.074;9.952;2023-07-13T01:58:33;5.35;;;3.03;;
8232;SDS011;4157;48.074;9.952;2023-07-13T02:01:01;5.00;;;2.85;;
8232;SDS011;4157;48.074;9.952;2023-07-13T02:03:28;6.30;;;3.47;;
8232;SDS011;4157;48.074;9.952;2023-07-13T02:05:58;5.32;;;2.80;;
8232;SDS011;4157;48.074;9.952;2023-07-13T02:08:25;5.97;;;2.90;;
8232;SDS011;4157;48.074;9.952;2023-07-13T02:10:53;5.30;;;2.78;;
8232;SDS011;4157;48.074;9.952;2023-07-13T02:13:22;5.47;;;3.03;;
8232;SDS011;4157;48.074;9.952;2023-07-13T02:15:50;6.72;;;2.80;;
8232;SDS011;4157;48.074;9.952;2023-07-13T02:18:17;4.93;;;3.00;;
8232;SDS011;4157;48.074;9.952;2023-07-13T02:20:45;6.80;;;3.33;;
8232;SDS011;4157;48.074;9.952;2023-07-13T02:23:14;6.55;;;3.60;;
8232;SDS011;4157;48.074;9.952;2023-07-13T02:25:41;5.90;;;3.03;;
8232;SDS011;4157;48.074;9.952;2023-07-13T02:28:09;7.47;;;3.90;;
8232;SDS011;4157;48.074;9.952;2023-07-13T02:30:38;6.38;;;3.67;;
8232;SDS011;4157;48.074;9.952;2023-07-13T02:33:05;8.15;;;3.80;;
8232;SDS011;4157;48.074;9.952;2023-07-13T02:35:33;6.85;;;3.78;;
8232;SDS011;4157;48.074;9.952;2023-07-13T02:38:01;6.03;;;3.85;;
8232;SDS011;4157;48.074;9.952;2023-07-13T02:40:30;7.43;;;4.38;;
8232;SDS011;4157;48.074;9.952;2023-07-13T02:42:58;10.38;;;4.88;;
8232;SDS011;4157;48.074;9.952;2023-07-13T02:45:26;11.13;;;4.55;;
8232;SDS011;4157;48.074;9.952;2023-07-13T02:47:55;8.48;;;4.57;;
8232;SDS011;4157;48.074;9.952;2023-07-13T02:50:23;6.32;;;3.88;;
8232;SDS011;4157;48.074;9.952;2023-07-13T02:52:50;8.02;;;4.05;;
8232;SDS011;4157;48.074;9.952;2023-07-13T02:55:18;7.78;;;4.75;;
8232;SDS011;4157;48.074;9.952;2023-07-13T02:57:46;6.80;;;4.32;;
8232;SDS011;4157;48.074;9.952;2023-07-13T03:00:15;8.55;;;4.57;;
8232;SDS011;4157;48.074;9.952;2023-07-13T03:02:43;9.05;;;4.47;;
8232;SDS011;4157;48.074;9.952;2023-07-13T03:05:12;10.48;;;4.75;;
8232;SDS011;4157;48.074;9.952;2023-07-13T03:07:42;7.40;;;4.38;;
8232;SDS011;4157;48.074;9.952;2023-07-13T03:10:10;8.40;;;5.15;;
8232;SDS011;4157;48.074;9.952;2023-07-13T03:12:44;8.70;;;5.28;;
8232;SDS011;4157;48.074;9.952;2023-07-13T03:15:20;7.28;;;4.60;;
8232;SDS011;4157;48.074;9.952;2023-07-13T03:17:49;10.23;;;5.13;;
8232;SDS011;4157;48.074;9.952;2023-07-13T03:20:19;11.05;;;5.32;;
8232;SDS011;4157;48.074;9.952;2023-07-13T03:22:46;9.75;;;5.40;;
8232;SDS011;4157;48.074;9.952;2023-07-13T03:25:15;7.75;;;4.97;;
8232;SDS011;4157;48.074;9.952;2023-07-13T03:27:43;8.20;;;5.05;;
8232;SDS011;4157;48.074;9.952;2023-07-13T03:30:11;8.57;;;5.03;;
8232;SDS011;4157;48.074;9.952;2023-07-13T03:32:40;9.02;;;5.28;;
8232;SDS011;4157;48.074;9.952;2023-07-13T03:35:08;9.30;;;5.15;;
8232;SDS011;4157;48.074;9.952;2023-07-13T03:37:38;7.07;;;4.82;;
8232;SDS011;4157;48.074;9.952;2023-07-13T03:40:10;8.70;;;5.28;;
8232;SDS011;4157;48.074;9.952;2023-07-13T03:42:38;7.85;;;4.82;;
8232;SDS011;4157;48.074;9.952;2023-07-13T03:45:07;8.52;;;5.43;;
8232;SDS011;4157;48.074;9.952;2023-07-13T03:47:35;11.63;;;5.10;;
8232;SDS011;4157;48.074;9.952;2023-07-13T03:50:04;12.18;;;5.05;;
8232;SDS011;4157;48.074;9.952;2023-07-13T03:52:32;9.82;;;5.15;;
8232;SDS011;4157;48.074;9.952;2023-07-13T03:55:01;8.27;;;4.63;;
8232;SDS011;4157;48.074;9.952;2023-07-13T03:57:29;11.18;;;5.53;;
8232;SDS011;4157;48.074;9.952;2023-07-13T03:59:58;11.82;;;5.10;;
8232;SDS011;4157;48.074;9.952;2023-07-13T04:02:25;11.40;;;4.97;;
8232;SDS011;4157;48.074;9.952;2023-07-13T04:04:53;10.60;;;5.30;;
8232;SDS011;4157;48.074;9.952;2023-07-13T04:07:23;9.25;;;4.80;;
8232;SDS011;4157;48.074;9.952;2023-07-13T04:09:52;9.70;;;4.57;;
8232;SDS011;4157;48.074;9.952;2023-07-13T04:12:21;9.10;;;5.30;;
8232;SDS011;4157;48.074;9.952;2023-07-13T04:14:49;9.85;;;4.72;;
8232;SDS011;4157;48.074;9.952;2023-07-13T04:17:16;9.65;;;4.70;;
8232;SDS011;4157;48.074;9.952;2023-07-13T04:19:44;10.13;;;5.03;;
8232;SDS011;4157;48.074;9.952;2023-07-13T04:22:12;10.98;;;4.57;;
8232;SDS011;4157;48.074;9.952;2023-07-13T04:24:40;7.15;;;4.28;;
8232;SDS011;4157;48.074;9.952;2023-07-13T04:27:07;8.57;;;4.25;;
8232;SDS011;4157;48.074;9.952;2023-07-13T04:29:36;8.30;;;3.85;;
8232;SDS011;4157;48.074;9.952;2023-07-13T04:32:04;8.40;;;4.00;;
8232;SDS011;4157;48.074;9.952;2023-07-13T04:34:32;9.82;;;3.42;;
8232;SDS011;4157;48.074;9.952;2023-07-13T04:37:00;9.43;;;3.90;;
8232;SDS011;4157;48.074;9.952;2023-07-13T04:39:28;10.85;;;3.90;;
8232;SDS011;4157;48.074;9.952;2023-07-13T04:41:55;5.45;;;3.10;;
8232;SDS011;4157;48.074;9.952;2023-07-13T04:44:23;5.65;;;3.25;;
8232;SDS011;4157;48.074;9.952;2023-07-13T04:46:52;8.82;;;3.25;;
8232;SDS011;4157;48.074;9.952;2023-07-13T04:49:20;9.52;;;3.60;;
8232;SDS011;4157;48.074;9.952;2023-07-13T04:51:48;6.00;;;3.47;;
8232;SDS011;4157;48.074;9.952;2023-07-13T04:54:15;10.10;;;3.30;;
8232;SDS011;4157;48.074;9.952;2023-07-13T04:56:43;5.72;;;3.28;;
8232;SDS011;4157;48.074;9.952;2023-07-13T04:59:10;7.03;;;3.15;;
8232;SDS011;4157;48.074;9.952;2023-07-13T05:01:38;5.35;;;3.00;;
8232;SDS011;4157;48.074;9.952;2023-07-13T05:04:07;9.35;;;3.28;;
8232;SDS011;4157;48.074;9.952;2023-07-13T05:06:35;8.57;;;3.10;;
8232;SDS011;4157;48.074;9.952;2023-07-13T05:09:03;8.82;;;2.67;;
8232;SDS011;4157;48.074;9.952;2023-07-13T05:11:31;7.70;;;3.10;;
8232;SDS011;4157;48.074;9.952;2023-07-13T05:13:59;5.50;;;2.88;;
8232;SDS011;4157;48.074;9.952;2023-07-13T05:16:27;7.38;;;3.33;;
8232;SDS011;4157;48.074;9.952;2023-07-13T05:18:55;7.50;;;3.65;;
8232;SDS011;4157;48.074;9.952;2023-07-13T05:21:24;7.68;;;3.78;;
8232;SDS011;4157;48.074;9.952;2023-07-13T05:23:51;7.00;;;3.75;;
8232;SDS011;4157;48.074;9.952;2023-07-13T05:26:19;9.90;;;4.18;;
8232;SDS011;4157;48.074;9.952;2023-07-13T05:28:47;9.13;;;4.38;;
8232;SDS011;4157;48.074;9.952;2023-07-13T05:31:15;10.77;;;4.32;;
8232;SDS011;4157;48.074;9.952;2023-07-13T05:33:42;7.47;;;3.50;;
8232;SDS011;4157;48.074;9.952;2023-07-13T05:36:10;8.52;;;4.25;;
8232;SDS011;4157;48.074;9.952;2023-07-13T05:38:39;9.45;;;4.40;;
8232;SDS011;4157;48.074;9.952;2023-07-13T05:41:06;8.40;;;3.67;;
8232;SDS011;4157;48.074;9.952;2023-07-13T05:43:35;7.75;;;3.70;;
8232;SDS011;4157;48.074;9.952;2023-07-13T05:46:03;7.35;;;3.97;;
8232;SDS011;4157;48.074;9.952;2023-07-13T05:48:30;6.68;;;3.60;;
8232;SDS011;4157;48.074;9.952;2023-07-13T05:50:58;7.13;;;3.45;;
8232;SDS011;4157;48.074;9.952;2023-07-13T05:53:26;8.98;;;3.58;;
8232;SDS011;4157;48.074;9.952;2023-07-13T05:55:55;14.25;;;3.83;;
8232;SDS011;4157;48.074;9.952;2023-07-13T05:58:22;9.65;;;4.10;;
8232;SDS011;4157;48.074;9.952;2023-07-13T06:00:57;5.97;;;3.10;;
8232;SDS011;4157;48.074;9.952;2023-07-13T06:03:26;8.77;;;2.83;;
8232;SDS011;4157;48.074;9.952;2023-07-13T06:05:53;6.13;;;2.65;;
8232;SDS011;4157;48.074;9.952;2023-07-13T06:08:21;6.97;;;3.20;;
8232;SDS011;4157;48.074;9.952;2023-07-13T06:10:48;5.63;;;2.67;;
8232;SDS011;4157;48.074;9.952;2023-07-13T06:13:17;6.30;;;2.30;;
8232;SDS011;4157;48.074;9.952;2023-07-13T06:15:47;5.30;;;1.90;;
8232;SDS011;4157;48.074;9.952;2023-07-13T06:18:15;4.50;;;1.98;;
8232;SDS011;4157;48.074;9.952;2023-07-13T06:20:43;5.57;;;2.10;;
8232;SDS011;4157;48.074;9.952;2023-07-13T06:23:10;4.15;;;2.03;;
8232;SDS011;4157;48.074;9.952;2023-07-13T06:25:38;4.88;;;2.20;;
8232;SDS011;4157;48.074;9.952;2023-07-13T06:28:07;4.57;;;1.88;;
8232;SDS011;4157;48.074;9.952;2023-07-13T06:30:36;3.42;;;1.63;;
8232;SDS011;4157;48.074;9.952;2023-07-13T06:33:05;5.88;;;1.83;;
8232;SDS011;4157;48.074;9.952;2023-07-13T06:35:32;5.30;;;2.20;;
8232;SDS011;4157;48.074;9.952;2023-07-13T06:38:00;6.60;;;1.90;;
8232;SDS011;4157;48.074;9.952;2023-07-13T06:40:28;5.40;;;2.10;;
8232;SDS011;4157;48.074;9.952;2023-07-13T06:42:56;6.55;;;2.00;;
8232;SDS011;4157;48.074;9.952;2023-07-13T06:45:23;5.18;;;1.98;;
8232;SDS011;4157;48.074;9.952;2023-07-13T06:47:52;5.75;;;1.80;;
8232;SDS011;4157;48.074;9.952;2023-07-13T06:50:20;5.40;;;1.75;;
8232;SDS011;4157;48.074;9.952;2023-07-13T06:52:48;5.85;;;1.80;;
8232;SDS011;4157;48.074;9.952;2023-07-13T06:55:16;5.72;;;1.90;;
8232;SDS011;4157;48.074;9.952;2023-07-13T06:57:43;3.45;;;1.70;;
8232;SDS011;4157;48.074;9.952;2023-07-13T07:00:11;3.40;;;1.67;;
8232;SDS011;4157;48.074;9.952;2023-07-13T07:02:39;5.38;;;1.60;;
8232;SDS011;4157;48.074;9.952;2023-07-13T07:05:08;5.32;;;1.65;;
8232;SDS011;4157;48.074;9.952;2023-07-13T07:07:36;4.40;;;1.80;;
8232;SDS011;4157;48.074;9.952;2023-07-13T07:10:04;5.45;;;1.75;;
8232;SDS011;4157;48.074;9.952;2023-07-13T07:12:32;5.32;;;2.10;;
8232;SDS011;4157;48.074;9.952;2023-07-13T07:15:00;4.20;;;1.90;;
8232;SDS011;4157;48.074;9.952;2023-07-13T07:17:27;4.38;;;1.60;;
8232;SDS011;4157;48.074;9.952;2023-07-13T07:19:55;4.30;;;1.85;;
8232;SDS011;4157;48.074;9.952;2023-07-13T07:22:24;3.83;;;1.60;;
8232;SDS011;4157;48.074;9.952;2023-07-13T07:24:52;5.82;;;1.88;;
8232;SDS011;4157;48.074;9.952;2023-07-13T07:27:20;4.22;;;1.65;;
8232;SDS011;4157;48.074;9.952;2023-07-13T07:29:48;4.15;;;1.80;;
8232;SDS011;4157;48.074;9.952;2023-07-13T07:32:15;3.17;;;1.60;;
8232;SDS011;4157;48.074;9.952;2023-07-13T07:34:43;7.05;;;1.90;;
8232;SDS011;4157;48.074;9.952;2023-07-13T07:37:11;4.93;;;1.80;;
8232;SDS011;4157;48.074;9.952;2023-07-13T07:39:40;6.85;;;1.88;;
8232;SDS011;4157;48.074;9.952;2023-07-13T07:42:08;4.43;;;1.70;;
8232;SDS011;4157;48.074;9.952;2023-07-13T07:44:36;3.88;;;1.92;;
8232;SDS011;4157;48.074;9.952;2023-07-13T07:47:04;3.97;;;1.73;;
8232;SDS011;4157;48.074;9.952;2023-07-13T07:49:31;5.88;;;2.10;;
8232;SDS011;4157;48.074;9.952;2023-07-13T07:51:59;5.00;;;1.88;;
8232;SDS011;4157;48.074;9.952;2023-07-13T07:54:26;6.03;;;1.70;;
8232;SDS011;4157;48.074;9.952;2023-07-13T07:56:55;6.47;;;1.80;;
8232;SDS011;4157;48.074;9.952;2023-07-13T07:59:23;5.70;;;1.40;;
8232;SDS011;4157;48.074;9.952;2023-07-13T08:01:51;4.68;;;1.60;;
8232;SDS011;4157;48.074;9.952;2023-07-13T08:04:19;4.03;;;1.67;;
8232;SDS011;4157;48.074;9.952;2023-07-13T08:06:47;6.18;;;1.60;;
8232;SDS011;4157;48.074;9.952;2023-07-13T08:09:14;6.45;;;1.85;;
8232;SDS011;4157;48.074;9.952;2023-07-13T08:11:42;4.40;;;1.38;;
8232;SDS011;4157;48.074;9.952;2023-07-13T08:14:11;4.13;;;1.70;;
8232;SDS011;4157;48.074;9.952;2023-07-13T08:16:39;6.25;;;2.00;;
8232;SDS011;4157;48.074;9.952;2023-07-13T08:19:08;3.83;;;1.70;;
8232;SDS011;4157;48.074;9.952;2023-07-13T08:21:36;5.28;;;1.42;;
8232;SDS011;4157;48.074;9.952;2023-07-13T08:24:04;4.68;;;1.80;;
8232;SDS011;4157;48.074;9.952;2023-07-13T08:26:32;4.22;;;1.58;;
8232;SDS011;4157;48.074;9.952;2023-07-13T08:29:00;5.22;;;1.60;;
8232;SDS011;4157;48.074;9.952;2023-07-13T08:31:29;5.28;;;1.65;;
8232;SDS011;4157;48.074;9.952;2023-07-13T08:33:57;5.80;;;1.70;;
8232;SDS011;4157;48.074;9.952;2023-07-13T08:36:25;4.78;;;1.40;;
8232;SDS011;4157;48.074;9.952;2023-07-13T08:38:54;6.30;;;1.77;;
8232;SDS011;4157;48.074;9.952;2023-07-13T08:41:21;4.03;;;1.55;;
8232;SDS011;4157;48.074;9.952;2023-07-13T08:43:50;4.13;;;1.58;;
8232;SDS011;4157;48.074;9.952;2023-07-13T08:46:19;5.05;;;1.80;;
8232;SDS011;4157;48.074;9.952;2023-07-13T08:48:50;5.30;;;1.73;;
8232;SDS011;4157;48.074;9.952;2023-07-13T08:51:27;3.17;;;1.55;;
8232;SDS011;4157;48.074;9.952;2023-07-13T08:54:00;3.88;;;1.50;;
8232;SDS011;4157;48.074;9.952;2023-07-13T08:56:28;3.38;;;1.45;;
8232;SDS011;4157;48.074;9.952;2023-07-13T08:58:57;5.90;;;1.75;;
8232;SDS011;4157;48.074;9.952;2023-07-13T09:01:28;5.15;;;1.65;;
8232;SDS011;4157;48.074;9.952;2023-07-13T09:03:59;3.92;;;1.58;;
8232;SDS011;4157;48.074;9.952;2023-07-13T09:06:33;5.72;;;1.73;;
8232;SDS011;4157;48.074;9.952;2023-07-13T09:09:02;5.07;;;1.85;;
8232;SDS011;4157;48.074;9.952;2023-07-13T09:11:36;3.97;;;1.67;;
8232;SDS011;4157;48.074;9.952;2023-07-13T09:14:12;4.13;;;1.80;;
8232;SDS011;4157;48.074;9.952;2023-07-13T09:16:47;6.80;;;1.90;;
8232;SDS011;4157;48.074;9.952;2023-07-13T09:19:19;6.80;;;1.95;;
8232;SDS011;4157;48.074;9.952;2023-07-13T09:21:48;5.00;;;1.50;;
8232;SDS011;4157;48.074;9.952;2023-07-13T09:24:24;5.00;;;1.65;;
8232;SDS011;4157;48.074;9.952;2023-07-13T09:26:55;5.90;;;1.85;;
8232;SDS011;4157;48.074;9.952;2023-07-13T09:29:26;5.10;;;1.88;;
8232;SDS011;4157;48.074;9.952;2023-07-13T09:31:55;3.55;;;1.60;;
8232;SDS011;4157;48.074;9.952;2023-07-13T09:34:26;4.75;;;2.13;;
8232;SDS011;4157;48.074;9.952;2023-07-13T09:36:54;7.30;;;2.22;;
8232;SDS011;4157;48.074;9.952;2023-07-13T09:39:23;4.88;;;2.30;;
8232;SDS011;4157;48.074;9.952;2023-07-13T09:41:55;5.85;;;2.10;;
8232;SDS011;4157;48.074;9.952;2023-07-13T09:44:28;5.05;;;2.17;;
8232;SDS011;4157;48.074;9.952;2023-07-13T09:46:57;6.60;;;2.72;;
8232;SDS011;4157;48.074;9.952;2023-07-13T09:49:26;4.18;;;1.98;;
8232;SDS011;4157;48.074;9.952;2023-07-13T09:51:58;6.05;;;2.13;;
8232;SDS011;4157;48.074;9.952;2023-07-13T09:54:26;4.85;;;1.83;;
8232;SDS011;4157;48.074;9.952;2023-07-13T09:56:54;6.88;;;1.60;;
8232;SDS011;4157;48.074;9.952;2023-07-13T09:59:23;6.47;;;1.90;;
8232;SDS011;4157;48.074;9.952;2023-07-13T10:01:51;5.07;;;1.65;;
8232;SDS011;4157;48.074;9.952;2023-07-13T10:04:20;4.38;;;1.83;;
8232;SDS011;4157;48.074;9.952;2023-07-13T10:06:49;5.10;;;1.58;;
8232;SDS011;4157;48.074;9.952;2023-07-13T10:09:31;4.88;;;1.63;;
8232;SDS011;4157;48.074;9.952;2023-07-13T10:11:59;5.00;;;1.55;;
8232;SDS011;4157;48.074;9.952;2023-07-13T10:14:27;5.78;;;1.77;;
8232;SDS011;4157;48.074;9.952;2023-07-13T10:16:58;6.82;;;1.90;;
8232;SDS011;4157;48.074;9.952;2023-07-13T10:19:27;6.20;;;1.92;;
8232;SDS011;4157;48.074;9.952;2023-07-13T10:22:00;5.20;;;1.70;;
8232;SDS011;4157;48.074;9.952;2023-07-13T10:24:29;5.10;;;1.60;;
8232;SDS011;4157;48.074;9.952;2023-07-13T10:27:00;6.65;;;2.00;;
8232;SDS011;4157;48.074;9.952;2023-07-13T10:29:30;5.03;;;1.63;;
8232;SDS011;4157;48.074;9.952;2023-07-13T10:32:00;3.92;;;1.40;;
8232;SDS011;4157;48.074;9.952;2023-07-13T10:34:28;5.18;;;1.98;;
8232;SDS011;4157;48.074;9.952;2023-07-13T10:36:56;6.32;;;2.00;;
8232;SDS011;4157;48.074;9.952;2023-07-13T10:39:26;6.93;;;2.20;;
8232;SDS011;4157;48.074;9.952;2023-07-13T10:41:55;3.33;;;1.35;;
8232;SDS011;4157;48.074;9.952;2023-07-13T10:44:26;5.97;;;1.70;;
8232;SDS011;4157;48.074;9.952;2023-07-13T10:46:55;5.28;;;1.90;;
8232;SDS011;4157;48.074;9.952;2023-07-13T10:49:24;4.05;;;1.63;;
8232;SDS011;4157;48.074;9.952;2023-07-13T10:51:54;6.32;;;1.80;;
8232;SDS011;4157;48.074;9.952;2023-07-13T10:54:26;6.90;;;2.03;;
8232;SDS011;4157;48.074;9.952;2023-07-13T10:57:08;7.38;;;1.58;;
8232;SDS011;4157;48.074;9.952;2023-07-13T10:59:38;5.97;;;1.80;;
8232;SDS011;4157;48.074;9.952;2023-07-13T11:02:10;5.53;;;2.08;;
8232;SDS011;4157;48.074;9.952;2023-07-13T11:04:40;6.55;;;1.75;;
8232;SDS011;4157;48.074;9.952;2023-07-13T11:07:10;6.60;;;1.85;;
8232;SDS011;4157;48.074;9.952;2023-07-13T11:09:39;5.07;;;1.70;;
8232;SDS011;4157;48.074;9.952;2023-07-13T11:12:25;5.38;;;2.03;;
8232;SDS011;4157;48.074;9.952;2023-07-13T11:15:04;7.63;;;2.22;;
8232;SDS011;4157;48.074;9.952;2023-07-13T11:17:35;6.10;;;2.65;;
8232;SDS011;4157;48.074;9.952;2023-07-13T11:20:10;7.55;;;2.40;;
8232;SDS011;4157;48.074;9.952;2023-07-13T11:22:49;7.93;;;2.53;;
8232;SDS011;4157;48.074;9.952;2023-07-13T11:25:21;7.90;;;2.50;;
8232;SDS011;4157;48.074;9.952;2023-07-13T11:28:03;8.13;;;2.70;;
8232;SDS011;4157;48.074;9.952;2023-07-13T11:30:34;6.32;;;2.05;;
8232;SDS011;4157;48.074;9.952;2023-07-13T11:33:03;4.78;;;2.05;;
8232;SDS011;4157;48.074;9.952;2023-07-13T11:35:31;5.50;;;2.20;;
8232;SDS011;4157;48.074;9.952;2023-07-13T11:38:01;5.88;;;2.47;;
8232;SDS011;4157;48.074;9.952;2023-07-13T11:40:29;7.03;;;2.28;;
8232;SDS011;4157;48.074;9.952;2023-07-13T11:43:00;5.63;;;2.22;;
8232;SDS011;4157;48.074;9.952;2023-07-13T11:45:28;5.75;;;2.22;;
8232;SDS011;4157;48.074;9.952;2023-07-13T11:47:55;3.97;;;1.70;;
8232;SDS011;4157;48.074;9.952;2023-07-13T11:50:25;6.90;;;1.70;;
8232;SDS011;4157;48.074;9.952;2023-07-13T11:52:53;5.32;;;1.90;;
8232;SDS011;4157;48.074;9.952;2023-07-13T11:55:23;5.78;;;2.05;;
8232;SDS011;4157;48.074;9.952;2023-07-13T11:57:51;4.57;;;2.00;;
8232;SDS011;4157;48.074;9.952;2023-07-13T12:00:23;6.78;;;2.00;;
8232;SDS011;4157;48.074;9.952;2023-07-13T12:02:53;6.43;;;1.80;;
8232;SDS011;4157;48.074;9.952;2023-07-13T12:05:21;3.63;;;1.60;;
8232;SDS011;4157;48.074;9.952;2023-07-13T12:07:50;5.60;;;2.10;;
8232;SDS011;4157;48.074;9.952;2023-07-13T12:10:20;4.25;;;1.83;;
8232;SDS011;4157;48.074;9.952;2023-07-13T12:12:51;6.28;;;2.33;;
8232;SDS011;4157;48.074;9.952;2023-07-13T12:15:19;5.47;;;1.60;;
8232;SDS011;4157;48.074;9.952;2023-07-13T12:17:49;5.22;;;1.30;;
8232;SDS011;4157;48.074;9.952;2023-07-13T12:20:20;5.85;;;1.38;;
8232;SDS011;4157;48.074;9.952;2023-07-13T12:22:48;7.43;;;1.70;;
8232;SDS011;4157;48.074;9.952;2023-07-13T12:25:16;6.60;;;1.60;;
8232;SDS011;4157;48.074;9.952;2023-07-13T12:27:46;8.15;;;1.70;;
8232;SDS011;4157;48.074;9.952;2023-07-13T12:30:22;5.88;;;1.67;;
8232;SDS011;4157;48.074;9.952;2023-07-13T12:32:58;6.07;;;2.08;;
8232;SDS011;4157;48.074;9.952;2023-07-13T12:35:26;6.07;;;1.83;;
8232;SDS011;4157;48.074;9.952;2023-07-13T12:37:56;8.18;;;1.70;;
8232;SDS011;4157;48.074;9.952;2023-07-13T12:40:27;6.53;;;2.08;;
8232;SDS011;4157;48.074;9.952;2023-07-13T12:42:56;5.05;;;1.67;;
8232;SDS011;4157;48.074;9.952;2023-07-13T12:45:24;8.45;;;1.92;;
8232;SDS011;4157;48.074;9.952;2023-07-13T12:47:54;6.03;;;1.88;;
8232;SDS011;4157;48.074;9.952;2023-07-13T12:50:30;3.70;;;1.80;;
8232;SDS011;4157;48.074;9.952;2023-07-13T12:53:02;5.10;;;1.92;;
8232;SDS011;4157;48.074;9.952;2023-07-13T12:55:39;5.20;;;1.73;;
8232;SDS011;4157;48.074;9.952;2023-07-13T12:58:09;4.32;;;2.00;;
8232;SDS011;4157;48.074;9.952;2023-07-13T13:00:40;5.60;;;2.13;;
8232;SDS011;4157;48.074;9.952;2023-07-13T13:03:12;5.15;;;1.75;;
8232;SDS011;4157;48.074;9.952;2023-07-13T13:05:45;7.45;;;2.13;;
8232;SDS011;4157;48.074;9.952;2023-07-13T13:08:13;5.05;;;2.30;;
8232;SDS011;4157;48.074;9.952;2023-07-13T13:10:41;6.93;;;1.98;;
8232;SDS011;4157;48.074;9.952;2023-07-13T13:13:09;4.93;;;2.15;;
8232;SDS011;4157;48.074;9.952;2023-07-13T13:15:37;5.95;;;1.80;;
8232;SDS011;4157;48.074;9.952;2023-07-13T13:18:08;8.60;;;2.03;;
8232;SDS011;4157;48.074;9.952;2023-07-13T13:20:37;5.85;;;1.63;;
8232;SDS011;4157;48.074;9.952;2023-07-13T13:23:08;5.88;;;1.60;;
8232;SDS011;4157;48.074;9.952;2023-07-13T13:25:38;4.88;;;1.52;;
8232;SDS011;4157;48.074;9.952;2023-07-13T13:28:08;6.32;;;1.90;;
8232;SDS011;4157;48.074;9.952;2023-07-13T13:30:39;5.03;;;2.10;;
8232;SDS011;4157;48.074;9.952;2023-07-13T13:33:08;5.75;;;1.70;;
8232;SDS011;4157;48.074;9.952;2023-07-13T13:35:36;6.35;;;1.77;;
8232;SDS011;4157;48.074;9.952;2023-07-13T13:38:04;3.92;;;1.58;;
8232;SDS011;4157;48.074;9.952;2023-07-13T13:40:38;3.90;;;1.58;;
8232;SDS011;4157;48.074;9.952;2023-07-13T13:43:09;3.63;;;1.52;;
8232;SDS011;4157;48.074;9.952;2023-07-13T13:45:41;4.00;;;1.95;;
8232;SDS011;4157;48.074;9.952;2023-07-13T13:48:12;4.22;;;1.70;;
8232;SDS011;4157;48.074;9.952;2023-07-13T13:50:41;5.72;;;1.80;;
8232;SDS011;4157;48.074;9.952;2023-07-13T13:53:09;7.53;;;1.85;;
8232;SDS011;4157;48.074;9.952;2023-07-13T13:55:38;4.90;;;1.80;;
8232;SDS011;4157;48.074;9.952;2023-07-13T13:58:07;5.53;;;2.20;;
8232;SDS011;4157;48.074;9.952;2023-07-13T14:00:37;4.43;;;1.52;;
8232;SDS011;4157;48.074;9.952;2023-07-13T14:03:05;5.50;;;1.70;;
8232;SDS011;4157;48.074;9.952;2023-07-13T14:05:35;5.07;;;1.60;;
8232;SDS011;4157;48.074;9.952;2023-07-13T14:08:08;5.75;;;1.73;;
8232;SDS011;4157;48.074;9.952;2023-07-13T14:10:35;7.22;;;1.73;;
8232;SDS011;4157;48.074;9.952;2023-07-13T14:13:04;6.18;;;1.90;;
8232;SDS011;4157;48.074;9.952;2023-07-13T14:15:34;5.70;;;2.03;;
8232;SDS011;4157;48.074;9.952;2023-07-13T14:18:01;5.50;;;1.73;;
8232;SDS011;4157;48.074;9.952;2023-07-13T14:20:30;5.53;;;1.80;;
8232;SDS011;4157;48.074;9.952;2023-07-13T14:22:57;5.85;;;2.15;;
8232;SDS011;4157;48.074;9.952;2023-07-13T14:25:25;5.93;;;1.70;;
8232;SDS011;4157;48.074;9.952;2023-07-13T14:27:53;4.80;;;1.70;;
8232;SDS011;4157;48.074;9.952;2023-07-13T14:30:25;3.35;;;1.50;;
8232;SDS011;4157;48.074;9.952;2023-07-13T14:32:53;5.88;;;1.75;;
8232;SDS011;4157;48.074;9.952;2023-07-13T14:35:21;4.60;;;1.77;;
8232;SDS011;4157;48.074;9.952;2023-07-13T14:37:50;5.78;;;1.98;;
8232;SDS011;4157;48.074;9.952;2023-07-13T14:40:19;7.45;;;1.80;;
8232;SDS011;4157;48.074;9.952;2023-07-13T14:42:49;3.60;;;1.60;;
8232;SDS011;4157;48.074;9.952;2023-07-13T14:45:17;4.18;;;1.48;;
8232;SDS011;4157;48.074;9.952;2023-07-13T14:47:46;4.47;;;1.60;;
8232;SDS011;4157;48.074;9.952;2023-07-13T14:50:15;5.57;;;1.45;;
8232;SDS011;4157;48.074;9.952;2023-07-13T14:52:43;3.72;;;1.70;;
8232;SDS011;4157;48.074;9.952;2023-07-13T14:55:11;3.28;;;1.52;;
8232;SDS011;4157;48.074;9.952;2023-07-13T14:57:39;7.20;;;2.33;;
8232;SDS011;4157;48.074;9.952;2023-07-13T15:00:16;4.32;;;1.67;;
8232;SDS011;4157;48.074;9.952;2023-07-13T15:02:49;5.53;;;1.60;;
8232;SDS011;4157;48.074;9.952;2023-07-13T15:05:19;8.30;;;1.67;;
8232;SDS011;4157;48.074;9.952;2023-07-13T15:07:48;4.38;;;1.60;;
8232;SDS011;4157;48.074;9.952;2023-07-13T15:10:17;4.57;;;1.40;;
8232;SDS011;4157;48.074;9.952;2023-07-13T15:12:45;4.05;;;1.33;;
8232;SDS011;4157;48.074;9.952;2023-07-13T15:15:13;3.33;;;1.60;;
8232;SDS011;4157;48.074;9.952;2023-07-13T15:17:41;6.47;;;1.60;;
8232;SDS011;4157;48.074;9.952;2023-07-13T15:20:17;5.35;;;1.50;;
8232;SDS011;4157;48.074;9.952;2023-07-13T15:22:45;3.28;;;1.30;;
8232;SDS011;4157;48.074;9.952;2023-07-13T15:25:15;7.18;;;1.67;;
8232;SDS011;4157;48.074;9.952;2023-07-13T15:27:43;4.30;;;1.55;;